createdAt,value
2022-10-19T00:02:37.292Z,101052.88
2022-10-19T00:05:39.972Z,101065.31
2022-10-19T00:08:42.919Z,101069.53
2022-10-19T00:11:48.199Z,101071.88
2022-10-19T00:14:50.910Z,101076.03
2022-10-19T00:17:56.485Z,101076.59
2022-10-19T00:21:07.028Z,101075.66
2022-10-19T00:24:09.807Z,101082.66
2022-10-19T00:27:12.308Z,101074.13
2022-10-19T00:30:15.169Z,101075.00
2022-10-19T00:33:21.603Z,101082.34
2022-10-19T00:36:30.088Z,101073.78
2022-10-19T00:39:32.607Z,101072.28
2022-10-19T00:42:35.334Z,101074.94
2022-10-19T00:45:38.031Z,101071.78
2022-10-19T00:48:40.691Z,101059.41
2022-10-19T00:51:49.411Z,101076.06
2022-10-19T00:54:53.553Z,101074.72
2022-10-19T00:57:56.418Z,101068.41
2022-10-19T01:01:02.246Z,101069.72
2022-10-19T01:04:05.165Z,101071.34
2022-10-19T01:07:08.368Z,101066.56
2022-10-19T01:10:12.207Z,101068.88
2022-10-19T01:13:25.845Z,101065.59
2022-10-19T01:16:37.399Z,101072.84
2022-10-19T01:20:16.996Z,101062.81
2022-10-19T01:23:34.100Z,101069.66
2022-10-19T01:26:58.406Z,101052.81
2022-10-19T01:30:20.680Z,101052.50
2022-10-19T01:33:40.276Z,101059.12
2022-10-19T01:36:54.471Z,101047.41
2022-10-19T01:40:18.420Z,101049.09
2022-10-19T01:43:51.238Z,101040.19
2022-10-19T01:46:57.302Z,101049.44
2022-10-19T01:50:06.538Z,101055.72
2022-10-19T01:53:13.018Z,101058.19
2022-10-19T01:56:20.405Z,101070.09
2022-10-19T01:59:23.502Z,101066.12
2022-10-19T02:02:27.706Z,101072.06
2022-10-19T02:05:32.611Z,101078.75
2022-10-19T02:08:40.767Z,101076.25
2022-10-19T02:11:45.328Z,101077.59
2022-10-19T02:14:54.364Z,101082.03
2022-10-19T02:17:59.890Z,101067.31
2022-10-19T02:21:05.935Z,101077.37
2022-10-19T02:24:08.754Z,101061.03
2022-10-19T02:27:14.408Z,101072.94
2022-10-19T02:30:18.525Z,101068.31
2022-10-19T02:33:21.117Z,101075.44
2022-10-19T02:36:23.951Z,101066.47
2022-10-19T02:39:26.669Z,101063.81
2022-10-19T02:42:55.716Z,101061.66
2022-10-19T02:46:05.750Z,101063.47
2022-10-19T02:49:09.767Z,101071.09
2022-10-19T02:52:13.362Z,101083.66
2022-10-19T02:55:16.008Z,101076.75
2022-10-19T02:58:18.647Z,101076.25
2022-10-19T03:01:21.525Z,101080.03
2022-10-19T03:04:24.257Z,101077.03
2022-10-19T03:07:27.026Z,101089.62
2022-10-19T03:10:32.731Z,101099.03
2022-10-19T03:13:35.340Z,101097.03
2022-10-19T03:16:38.569Z,101100.84
2022-10-19T03:19:44.013Z,101102.16
2022-10-19T03:22:46.852Z,101099.31
2022-10-19T03:25:49.425Z,101097.13
2022-10-19T03:28:52.567Z,101095.84
2022-10-19T03:31:57.705Z,101094.53
2022-10-19T03:35:00.623Z,101106.31
2022-10-19T03:38:03.218Z,101101.53
2022-10-19T03:41:08.559Z,101090.94
2022-10-19T03:44:11.836Z,101096.53
2022-10-19T03:47:14.397Z,101100.84
2022-10-19T03:50:18.502Z,101095.72
2022-10-19T03:53:21.138Z,101094.75
2022-10-19T03:56:25.588Z,101100.72
2022-10-19T03:59:28.346Z,101101.87
2022-10-19T04:02:30.902Z,101101.03
2022-10-19T04:05:33.606Z,101109.66
2022-10-19T04:08:37.068Z,101112.97
2022-10-19T04:11:40.180Z,101113.28
2022-10-19T04:14:56.747Z,101113.28
2022-10-19T04:18:02.857Z,101106.19
2022-10-19T04:21:07.057Z,101107.66
2022-10-19T04:24:13.395Z,101104.34
2022-10-19T04:27:16.003Z,101110.00
2022-10-19T04:30:18.563Z,101112.63
2022-10-19T04:33:21.149Z,101119.72
2022-10-19T04:36:24.553Z,101113.44
2022-10-19T04:39:27.275Z,101115.94
2022-10-19T04:42:29.928Z,101116.09
2022-10-19T04:45:35.143Z,101115.94
2022-10-19T04:48:38.603Z,101124.87
2022-10-19T04:51:41.233Z,101119.06
2022-10-19T04:54:43.764Z,101117.41
2022-10-19T04:57:46.418Z,101113.62
2022-10-19T05:00:49.369Z,101114.63
2022-10-19T05:07:04.244Z,101118.75
2022-10-19T05:10:08.556Z,101125.72
2022-10-19T05:13:11.599Z,101123.41
2022-10-19T05:16:18.052Z,101119.59
2022-10-19T05:19:21.533Z,101116.28
2022-10-19T05:22:24.688Z,101128.53
2022-10-19T05:25:27.312Z,101128.03
2022-10-19T05:28:30.519Z,101130.66
2022-10-19T05:31:34.258Z,101136.47
2022-10-19T05:34:36.862Z,101132.16
2022-10-19T05:37:39.857Z,101136.47
2022-10-19T05:40:51.531Z,101135.97
2022-10-19T05:43:58.747Z,101138.59
2022-10-19T05:47:01.800Z,101142.09
2022-10-19T05:50:05.192Z,101147.88
2022-10-19T05:53:08.162Z,101158.63
2022-10-19T05:56:15.296Z,101156.97
2022-10-19T05:59:19.959Z,101168.22
2022-10-19T06:02:22.597Z,101156.13
2022-10-19T06:05:25.151Z,101168.22
2022-10-19T06:08:27.805Z,101163.41
2022-10-19T06:11:35.249Z,101170.56
2022-10-19T06:14:38.048Z,101170.53
2022-10-19T06:17:40.656Z,101171.19
2022-10-19T06:20:45.532Z,101179.47
2022-10-19T06:23:52.307Z,101179.97
2022-10-19T06:26:55.040Z,101183.75
2022-10-19T06:29:57.629Z,101191.53
2022-10-19T06:33:00.640Z,101183.25
2022-10-19T06:36:11.885Z,101183.72
2022-10-19T06:39:14.552Z,101192.31
2022-10-19T06:42:17.202Z,101192.94
2022-10-19T06:45:19.887Z,101205.00
2022-10-19T06:48:23.091Z,101205.16
2022-10-19T06:51:27.109Z,101210.13
2022-10-19T06:54:29.934Z,101214.75
2022-10-19T06:57:33.037Z,101212.56
2022-10-19T07:00:36.585Z,101219.31
2022-10-19T07:03:39.455Z,101215.78
2022-10-19T07:06:42.075Z,101212.09
2022-10-19T07:09:44.833Z,101216.72
2022-10-19T07:12:47.368Z,101218.31
2022-10-19T07:15:50.154Z,101233.44
2022-10-19T07:18:53.536Z,101226.41
2022-10-19T07:21:56.249Z,101229.66
2022-10-19T07:24:59.100Z,101224.09
2022-10-19T07:28:01.838Z,101220.75
2022-10-19T07:31:10.116Z,101218.06
2022-10-19T07:34:15.038Z,101222.94
2022-10-19T07:37:17.848Z,101223.47
2022-10-19T07:40:22.132Z,101233.41
2022-10-19T07:43:24.736Z,101229.44
2022-10-19T07:46:29.949Z,101238.66
2022-10-19T07:49:32.528Z,101242.19
2022-10-19T07:52:36.897Z,101244.28
2022-10-19T07:55:39.987Z,101236.28
2022-10-19T07:58:43.275Z,101234.94
2022-10-19T08:01:47.745Z,101229.16
2022-10-19T08:05:09.228Z,101241.16
2022-10-19T08:08:14.136Z,101241.81
2022-10-19T08:11:25.391Z,101237.97
2022-10-19T08:14:28.084Z,101242.81
2022-10-19T08:17:31.112Z,101243.84
2022-10-19T08:20:35.065Z,101248.03
2022-10-19T08:23:37.646Z,101243.84
2022-10-19T08:26:40.998Z,101243.66
2022-10-19T08:29:43.691Z,101237.50
2022-10-19T08:32:46.372Z,101233.81
2022-10-19T08:35:48.902Z,101228.66
2022-10-19T08:38:51.682Z,101232.78
2022-10-19T08:42:30.501Z,101230.47
2022-10-19T08:48:49.852Z,101233.44
2022-10-19T08:51:59.390Z,101236.25
2022-10-19T08:55:09.234Z,101234.63
2022-10-19T08:58:27.810Z,101226.13
2022-10-19T09:01:47.020Z,101235.62
2022-10-19T09:04:56.772Z,101223.91
2022-10-19T09:07:59.570Z,101225.53
2022-10-19T09:11:02.360Z,101219.16
2022-10-19T09:14:30.840Z,101227.41
2022-10-19T09:17:33.932Z,101231.84
2022-10-19T09:20:39.202Z,101221.38
2022-10-19T09:23:58.551Z,101226.91
2022-10-19T09:27:02.308Z,101234.59
2022-10-19T09:30:11.397Z,101234.31
2022-10-19T09:33:24.544Z,101235.72
2022-10-19T09:36:50.133Z,101227.56
2022-10-19T09:39:55.675Z,101234.31
2022-10-19T09:42:59.658Z,101234.50
2022-10-19T09:46:19.715Z,101229.81
2022-10-19T09:49:41.899Z,101223.41
2022-10-19T09:52:46.098Z,101230.81
2022-10-19T09:55:53.695Z,101226.06
2022-10-19T09:58:57.978Z,101222.91
2022-10-19T10:02:15.195Z,101233.91
2022-10-19T10:05:19.222Z,101222.06
2022-10-19T10:08:25.897Z,101225.94
2022-10-19T10:11:32.197Z,101224.00
2022-10-19T10:14:36.568Z,101228.88
2022-10-19T10:17:39.278Z,101217.19
2022-10-19T10:20:58.513Z,101222.94
2022-10-19T10:24:10.827Z,101218.06
2022-10-19T10:27:29.146Z,101211.41
2022-10-19T10:30:37.124Z,101210.53
2022-10-19T10:33:45.104Z,101211.06
2022-10-19T10:36:54.033Z,101201.81
2022-10-19T10:40:00.522Z,101201.19
2022-10-19T10:43:16.834Z,101195.41
2022-10-19T10:46:23.097Z,101191.69
2022-10-19T10:49:34.425Z,101198.31
2022-10-19T10:52:37.647Z,101202.81
2022-10-19T10:55:40.478Z,101198.91
2022-10-19T10:58:50.088Z,101192.13
2022-10-19T11:02:04.697Z,101189.87
2022-10-19T11:05:18.714Z,101193.50
2022-10-19T11:08:34.108Z,101187.59
2022-10-19T11:11:41.279Z,101177.44
2022-10-19T11:14:56.860Z,101173.91
2022-10-19T11:18:08.405Z,101176.47
2022-10-19T11:21:38.293Z,101179.75
2022-10-19T11:25:00.189Z,101169.16
2022-10-19T11:28:15.350Z,101163.63
2022-10-19T11:31:32.970Z,101161.00
2022-10-19T11:35:00.284Z,101156.63
2022-10-19T11:38:24.170Z,101152.47
2022-10-19T11:41:46.608Z,101164.56
2022-10-19T11:45:02.985Z,101150.25
2022-10-19T11:48:09.639Z,101147.75
2022-10-19T11:51:22.153Z,101139.41
2022-10-19T11:54:45.571Z,101134.78
2022-10-19T11:57:54.252Z,101131.84
2022-10-19T12:01:13.210Z,101128.81
2022-10-19T12:04:16.287Z,101117.28
2022-10-19T12:07:47.313Z,101122.78
2022-10-19T12:11:26.283Z,101106.88
2022-10-19T12:14:33.123Z,101095.22
2022-10-19T12:17:38.245Z,101088.50
2022-10-19T12:20:51.608Z,101096.62
2022-10-19T12:23:55.097Z,101087.28
2022-10-19T12:26:58.106Z,101088.75
2022-10-19T12:30:13.814Z,101089.62
2022-10-19T12:36:44.987Z,101080.72
2022-10-19T12:40:32.747Z,101072.81
2022-10-19T12:43:44.086Z,101073.66
2022-10-19T12:46:51.660Z,101063.56
2022-10-19T12:49:57.899Z,101059.88
2022-10-19T12:53:00.628Z,101054.13
2022-10-19T12:56:23.311Z,101061.28
2022-10-19T12:59:35.678Z,101049.25
2022-10-19T13:02:39.847Z,101038.00
2022-10-19T13:05:42.612Z,101044.19
2022-10-19T13:08:56.660Z,101036.22
2022-10-19T13:12:19.286Z,101044.69
2022-10-19T13:15:34.333Z,101037.03
2022-10-19T13:19:15.130Z,101045.03
2022-10-19T13:22:27.208Z,101037.13
2022-10-19T13:25:37.326Z,101038.53
2022-10-19T13:28:53.182Z,101036.53
2022-10-19T13:31:56.049Z,101049.81
2022-10-19T13:35:34.106Z,101056.97
2022-10-19T13:38:43.601Z,101049.12
2022-10-19T13:41:48.455Z,101054.75
2022-10-19T13:44:53.258Z,101052.62
2022-10-19T13:48:06.616Z,101048.50
2022-10-19T13:51:37.608Z,101059.41
2022-10-19T13:55:13.106Z,101055.97
2022-10-19T13:58:28.420Z,101038.44
2022-10-19T14:02:10.060Z,101046.31
2022-10-19T14:05:39.615Z,101042.28
2022-10-19T14:08:45.886Z,101044.19
2022-10-19T14:12:09.053Z,101038.72
2022-10-19T14:15:34.452Z,101034.09
2022-10-19T14:18:54.091Z,101039.25
2022-10-19T14:22:23.008Z,101027.94
2022-10-19T14:25:28.812Z,101027.56
2022-10-19T14:28:33.786Z,101015.56
2022-10-19T14:31:37.103Z,101024.03
2022-10-19T14:34:43.167Z,101029.06
2022-10-19T14:37:45.897Z,101020.97
2022-10-19T14:40:48.577Z,101023.37
2022-10-19T14:43:51.192Z,101024.84
2022-10-19T14:46:54.282Z,101033.72
2022-10-19T14:49:57.282Z,101025.78
2022-10-19T14:53:29.835Z,101021.03
2022-10-19T14:56:50.966Z,101023.19
2022-10-19T14:59:57.708Z,101033.22
2022-10-19T15:03:04.434Z,101042.59
2022-10-19T15:06:07.554Z,101036.03
2022-10-19T15:09:36.731Z,101042.44
2022-10-19T15:12:42.404Z,101040.53
2022-10-19T15:15:45.387Z,101043.47
2022-10-19T15:18:49.866Z,101049.59
2022-10-19T15:22:14.320Z,101042.38
2022-10-19T15:25:23.765Z,101047.81
2022-10-19T15:28:41.567Z,101056.75
2022-10-19T15:31:44.701Z,101055.34
2022-10-19T15:34:47.598Z,101059.88
2022-10-19T15:37:51.194Z,101066.66
2022-10-19T15:40:59.561Z,101072.88
2022-10-19T15:44:08.538Z,101076.59
2022-10-19T15:47:20.469Z,101081.94
2022-10-19T15:50:33.063Z,101080.94
2022-10-19T15:53:35.829Z,101074.59
2022-10-19T15:56:40.325Z,101079.97
2022-10-19T15:59:42.968Z,101085.72
2022-10-19T16:02:45.686Z,101103.00
2022-10-19T16:05:48.502Z,101104.84
2022-10-19T16:08:51.466Z,101097.56
2022-10-19T16:11:57.263Z,101096.62
2022-10-19T16:14:59.936Z,101115.94
2022-10-19T16:18:03.230Z,101125.94
2022-10-19T16:21:06.394Z,101122.88
2022-10-19T16:24:08.965Z,101130.91
2022-10-19T16:27:15.449Z,101127.66
2022-10-19T16:30:18.594Z,101138.00
2022-10-19T16:33:21.460Z,101144.69
2022-10-19T16:36:24.188Z,101138.41
2022-10-19T16:39:27.318Z,101141.94
2022-10-19T16:42:33.592Z,101151.94
2022-10-19T16:45:37.242Z,101150.12
2022-10-19T16:48:40.806Z,101149.50
2022-10-19T16:51:44.594Z,101161.47
2022-10-19T16:54:47.741Z,101162.16
2022-10-19T16:57:50.970Z,101158.06
2022-10-19T17:00:56.796Z,101169.00
2022-10-19T17:04:00.059Z,101165.50
2022-10-19T17:07:03.209Z,101166.22
2022-10-19T17:10:06.468Z,101181.78
2022-10-19T17:13:09.891Z,101193.22
2022-10-19T17:16:13.858Z,101192.06
2022-10-19T17:19:17.354Z,101184.75
2022-10-19T17:22:20.504Z,101188.22
2022-10-19T17:25:23.503Z,101191.88
2022-10-19T17:28:27.755Z,101195.34
2022-10-19T17:31:31.385Z,101203.28
2022-10-19T17:34:35.780Z,101209.34
2022-10-19T17:37:38.760Z,101204.88
2022-10-19T17:40:44.406Z,101205.00
2022-10-19T17:43:48.290Z,101196.37
2022-10-19T17:46:51.339Z,101205.16
2022-10-19T17:49:54.549Z,101213.56
2022-10-19T17:52:58.733Z,101212.87
2022-10-19T17:56:06.940Z,101225.94
2022-10-19T17:59:09.997Z,101224.94
2022-10-19T18:02:12.937Z,101237.44
2022-10-19T18:05:16.022Z,101234.38
2022-10-19T18:08:18.934Z,101238.66
2022-10-19T18:11:35.399Z,101241.41
2022-10-19T18:14:40.064Z,101247.78
2022-10-19T18:17:43.462Z,101246.03
2022-10-19T18:20:46.942Z,101243.91
2022-10-19T18:23:50.022Z,101240.53
2022-10-19T18:26:53.544Z,101236.84
2022-10-19T18:29:56.901Z,101251.19
2022-10-19T18:33:00.096Z,101248.72
2022-10-19T18:36:04.036Z,101251.88
2022-10-19T18:39:07.799Z,101254.66
2022-10-19T18:42:12.946Z,101260.91
2022-10-19T18:45:16.667Z,101263.16
2022-10-19T18:48:19.831Z,101269.03
2022-10-19T18:51:24.302Z,101269.12
2022-10-19T18:54:28.257Z,101275.13
2022-10-19T18:57:31.923Z,101271.19
2022-10-19T19:00:39.032Z,101276.94
2022-10-19T19:03:47.057Z,101279.78
2022-10-19T19:06:50.069Z,101287.16
2022-10-19T19:09:53.392Z,101293.84
2022-10-19T19:12:57.591Z,101296.25
2022-10-19T19:16:01.010Z,101298.78
2022-10-19T19:19:05.631Z,101297.56
2022-10-19T19:22:08.951Z,101302.56
2022-10-19T19:25:12.178Z,101309.81
2022-10-19T19:28:15.578Z,101316.22
2022-10-19T19:31:20.964Z,101308.22
2022-10-19T19:34:23.933Z,101309.31
2022-10-19T19:37:27.490Z,101311.09
2022-10-19T19:40:34.653Z,101314.44
2022-10-19T19:43:38.914Z,101320.66
2022-10-19T19:46:41.911Z,101324.28
2022-10-19T19:49:44.597Z,101332.34
2022-10-19T19:52:48.797Z,101333.44
2022-10-19T19:55:51.550Z,101336.06
2022-10-19T19:58:56.652Z,101329.16
2022-10-19T20:01:59.562Z,101339.41
2022-10-19T20:05:02.486Z,101336.91
2022-10-19T20:08:06.326Z,101343.28
2022-10-19T20:11:12.156Z,101339.41
2022-10-19T20:14:15.069Z,101349.53
2022-10-19T20:17:23.697Z,101346.88
2022-10-19T20:20:29.636Z,101344.41
2022-10-19T20:23:32.860Z,101346.19
2022-10-19T20:26:36.149Z,101360.88
2022-10-19T20:29:40.711Z,101352.13
2022-10-19T20:32:44.325Z,101348.56
2022-10-19T20:35:47.811Z,101345.34
2022-10-19T20:38:53.521Z,101338.97
2022-10-19T20:41:56.458Z,101334.53
2022-10-19T20:44:59.064Z,101325.81
2022-10-19T20:48:01.701Z,101337.31
2022-10-19T20:51:30.711Z,101342.56
2022-10-19T20:54:36.036Z,101337.63
2022-10-19T20:57:38.738Z,101345.22
2022-10-19T21:00:42.302Z,101342.97
2022-10-19T21:03:52.932Z,101339.41
2022-10-19T21:06:55.629Z,101336.34
2022-10-19T21:09:58.716Z,101343.25
2022-10-19T21:13:01.409Z,101331.06
2022-10-19T21:16:18.239Z,101333.59
2022-10-19T21:19:22.746Z,101350.72
2022-10-19T21:22:25.364Z,101351.31
2022-10-19T21:25:30.485Z,101355.72
2022-10-19T21:28:33.129Z,101352.25
2022-10-19T21:31:37.005Z,101356.06
2022-10-19T21:34:39.628Z,101360.75
2022-10-19T21:37:42.263Z,101359.50
2022-10-19T21:40:45.563Z,101364.00
2022-10-19T21:43:48.474Z,101355.22
2022-10-19T21:46:51.123Z,101356.53
2022-10-19T21:49:53.688Z,101361.16
2022-10-19T21:52:56.256Z,101351.97
2022-10-19T21:55:59.628Z,101360.31
2022-10-19T21:59:02.377Z,101361.81
2022-10-19T22:02:05.044Z,101363.28
2022-10-19T22:05:08.149Z,101357.38
2022-10-19T22:08:10.997Z,101349.88
2022-10-19T22:11:14.785Z,101345.00
2022-10-19T22:14:17.906Z,101352.31
2022-10-19T22:17:20.558Z,101354.56
2022-10-19T22:20:25.399Z,101351.09
2022-10-19T22:23:28.010Z,101339.66
2022-10-19T22:26:39.400Z,101347.62
2022-10-19T22:29:42.089Z,101345.94
2022-10-19T22:32:44.673Z,101347.75
2022-10-19T22:35:57.957Z,101339.63
2022-10-19T22:39:00.533Z,101347.84
2022-10-19T22:42:56.242Z,101347.81
2022-10-19T22:45:58.826Z,101334.44
2022-10-19T22:49:01.585Z,101341.31
2022-10-19T22:52:04.433Z,101344.66
2022-10-19T22:55:07.314Z,101340.72
2022-10-19T23:01:17.831Z,101342.13
2022-10-19T23:04:21.377Z,101350.62
2022-10-19T23:07:24.045Z,101346.78
2022-10-19T23:10:26.772Z,101355.87
2022-10-19T23:13:29.622Z,101357.03
2022-10-19T23:16:32.288Z,101363.53
2022-10-19T23:19:35.034Z,101363.59
2022-10-19T23:22:37.761Z,101355.63
2022-10-19T23:25:40.394Z,101357.59
2022-10-19T23:28:44.256Z,101367.16
2022-10-19T23:31:50.958Z,101360.25
2022-10-19T23:34:53.930Z,101364.97
2022-10-19T23:37:59.670Z,101371.59
2022-10-19T23:41:02.638Z,101371.28
2022-10-19T23:44:05.629Z,101367.53
2022-10-19T23:47:08.189Z,101375.03
2022-10-19T23:50:11.131Z,101368.91
2022-10-19T23:53:13.710Z,101370.88
2022-10-19T23:56:27.875Z,101375.28
2022-10-19T23:59:30.501Z,101370.69
